createdAt,value
2022-09-09T00:02:28.732Z,101096.75
2022-09-09T00:05:45.558Z,101095.94
2022-09-09T00:09:02.425Z,101102.84
2022-09-09T00:12:24.133Z,101078.75
2022-09-09T00:15:42.026Z,101073.69
2022-09-09T00:19:04.795Z,101094.25
2022-09-09T00:22:21.974Z,101083.09
2022-09-09T00:25:38.690Z,101084.78
2022-09-09T00:28:53.800Z,101091.53
2022-09-09T00:32:01.310Z,101087.97
2022-09-09T00:35:19.672Z,101087.75
2022-09-09T00:38:42.597Z,101084.19
2022-09-09T00:42:03.223Z,101081.66
2022-09-09T00:45:10.996Z,101081.66
2022-09-09T00:48:13.458Z,101077.25
2022-09-09T00:51:32.112Z,101066.16
2022-09-09T00:55:09.174Z,101069.06
2022-09-09T00:58:11.266Z,101070.13
2022-09-09T01:01:14.335Z,101074.50
2022-09-09T01:04:30.197Z,101066.97
2022-09-09T01:07:33.460Z,101080.81
2022-09-09T01:11:04.584Z,101072.84
2022-09-09T01:14:26.815Z,101067.81
2022-09-09T01:17:36.764Z,101074.75
2022-09-09T01:20:58.079Z,101077.47
2022-09-09T01:24:17.883Z,101080.22
2022-09-09T01:27:52.237Z,101076.66
2022-09-09T01:30:56.170Z,101085.47
2022-09-09T01:34:02.303Z,101078.50
2022-09-09T01:37:08.451Z,101077.69
2022-09-09T01:40:10.608Z,101088.00
2022-09-09T01:43:14.341Z,101078.75
2022-09-09T01:46:17.649Z,101066.59
2022-09-09T01:49:19.912Z,101078.75
2022-09-09T01:52:22.706Z,101074.13
2022-09-09T01:55:38.623Z,101072.22
2022-09-09T01:59:12.679Z,101084.19
2022-09-09T02:02:43.313Z,101074.13
2022-09-09T02:06:10.196Z,101067.81
2022-09-09T02:09:14.175Z,101056.31
2022-09-09T02:12:23.705Z,101070.53
2022-09-09T02:15:55.794Z,101075.19
2022-09-09T02:19:10.207Z,101076.84
2022-09-09T02:22:25.413Z,101068.06
2022-09-09T02:25:33.555Z,101073.50
2022-09-09T02:28:45.779Z,101059.00
2022-09-09T02:31:50.970Z,101041.78
2022-09-09T02:35:02.051Z,101040.09
2022-09-09T02:38:10.253Z,101034.88
2022-09-09T02:41:13.009Z,101037.81
2022-09-09T02:44:19.094Z,101042.00
2022-09-09T02:47:30.962Z,101051.88
2022-09-09T02:50:59.621Z,101048.72
2022-09-09T02:54:18.112Z,101049.97
2022-09-09T02:57:32.208Z,101059.22
2022-09-09T03:00:37.058Z,101045.16
2022-09-09T03:03:39.494Z,101060.28
2022-09-09T03:06:45.923Z,101058.38
2022-09-09T03:09:55.122Z,101047.66
2022-09-09T03:12:59.314Z,101044.53
2022-09-09T03:16:05.055Z,101065.75
2022-09-09T03:19:10.829Z,101065.94
2022-09-09T03:22:14.876Z,101064.06
2022-09-09T03:25:19.567Z,101051.50
2022-09-09T03:28:22.515Z,101049.38
2022-09-09T03:31:26.706Z,101059.88
2022-09-09T03:34:28.926Z,101062.19
2022-09-09T03:37:33.881Z,101052.72
2022-09-09T03:40:36.355Z,101049.81
2022-09-09T03:43:38.776Z,101054.59
2022-09-09T03:46:40.953Z,101047.47
2022-09-09T03:49:43.010Z,101045.81
2022-09-09T03:52:45.461Z,101034.47
2022-09-09T03:55:56.354Z,101046.41
2022-09-09T03:59:00.578Z,101044.50
2022-09-09T04:02:03.902Z,101038.44
2022-09-09T04:05:08.102Z,101034.66
2022-09-09T04:08:10.223Z,101045.97
2022-09-09T04:11:12.379Z,101035.28
2022-09-09T04:14:14.729Z,101040.50
2022-09-09T04:17:17.328Z,101048.53
2022-09-09T04:20:20.537Z,101049.13
2022-09-09T04:23:22.647Z,101060.03
2022-09-09T04:26:25.144Z,101048.94
2022-09-09T04:29:27.869Z,101061.69
2022-09-09T04:32:30.051Z,101064.22
2022-09-09T04:35:32.075Z,101061.50
2022-09-09T04:38:34.181Z,101060.44
2022-09-09T04:41:37.059Z,101059.38
2022-09-09T04:44:40.431Z,101062.31
2022-09-09T04:47:42.563Z,101059.78
2022-09-09T04:50:44.762Z,101049.09
2022-09-09T04:53:48.763Z,101048.69
2022-09-09T04:56:52.428Z,101050.56
2022-09-09T04:59:54.557Z,101053.19
2022-09-09T05:02:57.097Z,101056.69
2022-09-09T05:06:09.510Z,101058.06
2022-09-09T05:12:30.382Z,101054.59
2022-09-09T05:15:32.633Z,101053.53
2022-09-09T05:18:34.835Z,101048.94
2022-09-09T05:21:37.155Z,101037.84
2022-09-09T05:24:39.848Z,101041.03
2022-09-09T05:27:42.678Z,101053.63
2022-09-09T05:30:44.808Z,101046.72
2022-09-09T05:33:49.236Z,101060.84
2022-09-09T05:36:53.159Z,101054.75
2022-09-09T05:39:57.307Z,101050.50
2022-09-09T05:43:01.436Z,101061.44
2022-09-09T05:46:07.539Z,101047.78
2022-09-09T05:49:09.722Z,101053.72
2022-09-09T05:52:12.282Z,101043.81
2022-09-09T05:55:14.958Z,100964.53
2022-09-09T05:58:17.955Z,101062.09
2022-09-09T06:01:23.085Z,101046.16
2022-09-09T06:04:25.453Z,101056.88
2022-09-09T06:07:27.482Z,101047.22
2022-09-09T06:10:30.014Z,101038.56
2022-09-09T06:13:32.751Z,101044.66
2022-09-09T06:16:36.017Z,101042.38
2022-09-09T06:19:38.354Z,101044.88
2022-09-09T06:22:42.160Z,101049.50
2022-09-09T06:25:44.414Z,101042.97
2022-09-09T06:28:51.207Z,101043.63
2022-09-09T06:31:53.333Z,101039.41
2022-09-09T06:34:57.683Z,101045.66
2022-09-09T06:38:00.518Z,101038.75
2022-09-09T06:41:02.977Z,101030.78
2022-09-09T06:44:05.839Z,101019.44
2022-09-09T06:47:15.138Z,101005.81
2022-09-09T06:50:19.252Z,101027.75
2022-09-09T06:53:23.234Z,101031.06
2022-09-09T06:56:29.854Z,101011.59
2022-09-09T06:59:33.749Z,100997.69
2022-09-09T07:02:40.230Z,101026.38
2022-09-09T07:05:43.381Z,101015.84
2022-09-09T07:08:56.283Z,101014.38
2022-09-09T07:12:02.002Z,101032.53
2022-09-09T07:15:09.736Z,101032.09
2022-09-09T07:18:11.821Z,101040.47
2022-09-09T07:21:15.549Z,101030.59
2022-09-09T07:24:18.300Z,101045.81
2022-09-09T07:27:22.292Z,101041.31
2022-09-09T07:30:27.817Z,101033.25
2022-09-09T07:33:34.426Z,101027.94
2022-09-09T07:36:39.268Z,101030.91
2022-09-09T07:39:43.416Z,101026.19
2022-09-09T07:42:45.615Z,101018.81
2022-09-09T07:45:48.216Z,101019.41
2022-09-09T07:48:57.780Z,101023.34
2022-09-09T07:52:04.581Z,101012.03
2022-09-09T07:55:07.627Z,101015.38
2022-09-09T07:58:09.712Z,101030.22
2022-09-09T08:01:19.092Z,101021.28
2022-09-09T08:04:22.868Z,101007.00
2022-09-09T08:07:26.235Z,100999.00
2022-09-09T08:10:30.319Z,101010.03
2022-09-09T08:13:34.952Z,101021.25
2022-09-09T08:16:43.015Z,101020.16
2022-09-09T08:19:46.835Z,101016.91
2022-09-09T08:22:53.923Z,101013.59
2022-09-09T08:25:56.002Z,101014.19
2022-09-09T08:29:00.135Z,101018.75
2022-09-09T08:32:03.495Z,101012.19
2022-09-09T08:35:08.420Z,101007.41
2022-09-09T08:38:11.254Z,101019.72
2022-09-09T08:41:35.912Z,101018.41
2022-09-09T08:44:49.031Z,101004.69
2022-09-09T08:47:56.259Z,100999.56
2022-09-09T08:51:03.243Z,101005.31
2022-09-09T08:54:11.178Z,101010.44
2022-09-09T08:57:22.845Z,101000.94
2022-09-09T09:00:34.205Z,101003.09
2022-09-09T09:03:48.667Z,101002.16
2022-09-09T09:07:15.210Z,100999.06
2022-09-09T09:10:44.287Z,101009.94
2022-09-09T09:14:03.919Z,101008.25
2022-09-09T09:17:14.048Z,100998.34
2022-09-09T09:20:17.546Z,100975.69
2022-09-09T09:23:25.245Z,101002.53
2022-09-09T09:26:36.233Z,100985.56
2022-09-09T09:30:10.610Z,100998.97
2022-09-09T09:33:41.931Z,100984.63
2022-09-09T09:36:48.182Z,100988.31
2022-09-09T09:40:08.529Z,100994.78
2022-09-09T09:43:23.019Z,100990.22
2022-09-09T09:46:26.956Z,100983.56
2022-09-09T09:49:34.136Z,100988.56
2022-09-09T09:52:37.921Z,100965.19
2022-09-09T09:55:52.577Z,100981.50
2022-09-09T09:58:56.037Z,100985.56
2022-09-09T10:02:26.811Z,101007.38
2022-09-09T10:05:37.410Z,101008.44
2022-09-09T10:08:50.480Z,101011.88
2022-09-09T10:12:16.906Z,101020.38
2022-09-09T10:15:45.721Z,101016.75
2022-09-09T10:19:02.879Z,101015.34
2022-09-09T10:22:31.470Z,101010.69
2022-09-09T10:25:59.811Z,101013.91
2022-09-09T10:29:22.404Z,101015.44
2022-09-09T10:32:27.509Z,101023.88
2022-09-09T10:35:37.974Z,101024.13
2022-09-09T10:38:44.611Z,101027.56
2022-09-09T10:42:03.435Z,101010.53
2022-09-09T10:45:44.023Z,101032.91
2022-09-09T10:48:57.975Z,101028.75
2022-09-09T10:52:16.409Z,101019.38
2022-09-09T10:55:23.140Z,101021.06
2022-09-09T10:58:50.446Z,101026.91
2022-09-09T11:02:02.750Z,101034.75
2022-09-09T11:05:21.319Z,101025.31
2022-09-09T11:08:27.379Z,101034.13
2022-09-09T11:11:52.791Z,101023.25
2022-09-09T11:15:08.441Z,101034.56
2022-09-09T11:18:20.488Z,101021.94
2022-09-09T11:21:45.897Z,101018.13
2022-09-09T11:24:56.045Z,101012.06
2022-09-09T11:28:20.459Z,101012.00
2022-09-09T11:31:32.375Z,101003.94
2022-09-09T11:34:57.809Z,101015.25
2022-09-09T11:38:46.321Z,100990.22
2022-09-09T11:41:48.336Z,101001.47
2022-09-09T11:44:50.827Z,101000.16
2022-09-09T11:47:55.869Z,100988.97
2022-09-09T11:51:10.999Z,100976.56
2022-09-09T11:54:49.360Z,100983.47
2022-09-09T11:58:16.505Z,100983.72
2022-09-09T12:01:44.033Z,100978.25
2022-09-09T12:04:57.349Z,100966.94
2022-09-09T12:08:01.740Z,100958.81
2022-09-09T12:11:06.598Z,100949.28
2022-09-09T12:14:40.025Z,100955.72
2022-09-09T12:17:46.114Z,100965.97
2022-09-09T12:21:03.759Z,100955.00
2022-09-09T12:24:14.243Z,100957.75
2022-09-09T12:27:29.805Z,100958.59
2022-09-09T12:30:57.339Z,100966.81
2022-09-09T12:34:20.196Z,100959.06
2022-09-09T12:37:40.919Z,100968.13
2022-09-09T12:40:42.940Z,100954.28
2022-09-09T12:43:44.997Z,100962.03
2022-09-09T12:46:47.743Z,100953.81
2022-09-09T12:49:51.171Z,100954.16
2022-09-09T12:52:56.636Z,100952.03
2022-09-09T12:56:04.487Z,100957.28
2022-09-09T12:59:06.574Z,100951.22
2022-09-09T13:02:29.177Z,100961.94
2022-09-09T13:05:42.863Z,100968.25
2022-09-09T13:08:45.224Z,100958.00
2022-09-09T13:11:54.221Z,100945.84
2022-09-09T13:14:58.002Z,100937.97
2022-09-09T13:18:06.251Z,100967.28
2022-09-09T13:21:08.711Z,100967.13
2022-09-09T13:24:34.108Z,100981.56
2022-09-09T13:27:41.500Z,100984.31
2022-09-09T13:30:45.218Z,100981.56
2022-09-09T13:33:47.469Z,100985.84
2022-09-09T13:36:50.365Z,100992.16
2022-09-09T13:39:54.468Z,100998.00
2022-09-09T13:42:59.115Z,101000.63
2022-09-09T13:46:07.427Z,101002.75
2022-09-09T13:49:12.410Z,101006.44
2022-09-09T13:52:18.015Z,101006.66
2022-09-09T13:55:25.670Z,101004.38
2022-09-09T13:58:28.468Z,100991.38
2022-09-09T14:01:31.153Z,100978.00
2022-09-09T14:04:33.430Z,100979.66
2022-09-09T14:07:35.580Z,100986.59
2022-09-09T14:10:38.202Z,100980.38
2022-09-09T14:13:40.370Z,100974.38
2022-09-09T14:16:42.667Z,100987.16
2022-09-09T14:19:46.253Z,100956.00
2022-09-09T14:22:48.527Z,100984.84
2022-09-09T14:25:50.545Z,100980.66
2022-09-09T14:28:55.963Z,100969.84
2022-09-09T14:31:58.278Z,100984.94
2022-09-09T14:35:00.485Z,100979.84
2022-09-09T14:38:02.529Z,100969.47
2022-09-09T14:41:04.568Z,100978.88
2022-09-09T14:44:06.667Z,100981.63
2022-09-09T14:47:09.695Z,100974.78
2022-09-09T14:50:13.582Z,100993.72
2022-09-09T14:53:18.135Z,100998.59
2022-09-09T14:56:23.270Z,100986.19
2022-09-09T14:59:25.453Z,100983.69
2022-09-09T15:02:28.345Z,100986.63
2022-09-09T15:05:31.061Z,100990.44
2022-09-09T15:08:33.317Z,100985.44
2022-09-09T15:11:40.656Z,100988.41
2022-09-09T15:14:42.708Z,100976.34
2022-09-09T15:17:44.761Z,100986.81
2022-09-09T15:20:48.903Z,100992.88
2022-09-09T15:23:52.410Z,100994.78
2022-09-09T15:26:55.207Z,100981.19
2022-09-09T15:29:59.223Z,100986.28
2022-09-09T15:33:01.688Z,100986.06
2022-09-09T15:36:14.744Z,100998.69
2022-09-09T15:39:18.694Z,100998.69
2022-09-09T15:42:20.691Z,101000.78
2022-09-09T15:45:22.976Z,101003.78
2022-09-09T15:48:33.876Z,101005.28
2022-09-09T15:51:44.739Z,101010.13
2022-09-09T15:54:46.954Z,101020.88
2022-09-09T15:57:49.819Z,101023.41
2022-09-09T16:00:52.564Z,101028.06
2022-09-09T16:03:55.274Z,101020.16
2022-09-09T16:07:04.200Z,101021.44
2022-09-09T16:10:07.195Z,101023.72
2022-09-09T16:13:09.822Z,101023.47
2022-09-09T16:16:13.437Z,101022.88
2022-09-09T16:19:15.797Z,101024.16
2022-09-09T16:22:19.420Z,101011.75
2022-09-09T16:25:22.311Z,101019.13
2022-09-09T16:28:24.456Z,101008.09
2022-09-09T16:31:27.986Z,101022.31
2022-09-09T16:34:30.911Z,101022.56
2022-09-09T16:37:35.184Z,101020.50
2022-09-09T16:40:38.500Z,101018.22
2022-09-09T16:43:41.963Z,101024.66
2022-09-09T16:46:49.932Z,101036.91
2022-09-09T16:49:52.421Z,101021.41
2022-09-09T16:52:54.525Z,101033.56
2022-09-09T16:55:56.597Z,101014.91
2022-09-09T16:59:00.865Z,101048.31
2022-09-09T17:02:05.341Z,101041.13
2022-09-09T17:05:07.814Z,101043.88
2022-09-09T17:08:10.429Z,101042.19
2022-09-09T17:11:17.281Z,101043.88
2022-09-09T17:14:23.675Z,101047.69
2022-09-09T17:17:32.021Z,101041.44
2022-09-09T17:20:46.400Z,101062.72
2022-09-09T17:23:50.709Z,101059.59
2022-09-09T17:26:53.119Z,101049.34
2022-09-09T17:29:55.510Z,101060.22
2022-09-09T17:32:57.544Z,101062.56
2022-09-09T17:36:00.206Z,101069.34
2022-09-09T17:39:04.062Z,101059.25
2022-09-09T17:42:08.610Z,101061.84
2022-09-09T17:45:11.161Z,101068.53
2022-09-09T17:48:13.470Z,101069.31
2022-09-09T17:51:20.477Z,101062.59
2022-09-09T17:54:22.854Z,101076.59
2022-09-09T17:57:26.238Z,101064.94
2022-09-09T18:00:31.483Z,101076.59
2022-09-09T18:03:37.106Z,101057.13
2022-09-09T18:06:41.851Z,101070.00
2022-09-09T18:09:44.076Z,101069.88
2022-09-09T18:12:46.245Z,101072.66
2022-09-09T18:15:49.887Z,101080.03
2022-09-09T18:18:52.958Z,101081.91
2022-09-09T18:21:57.546Z,101093.50
2022-09-09T18:25:02.609Z,101092.03
2022-09-09T18:28:04.769Z,101090.81
2022-09-09T18:31:12.681Z,101090.50
2022-09-09T18:34:18.031Z,101093.16
2022-09-09T18:37:20.460Z,101083.19
2022-09-09T18:40:22.576Z,101082.53
2022-09-09T18:43:24.742Z,101084.72
2022-09-09T18:46:30.926Z,101083.66
2022-09-09T18:49:33.428Z,101078.38
2022-09-09T18:52:35.871Z,101074.34
2022-09-09T18:55:38.006Z,101088.16
2022-09-09T18:58:40.609Z,101084.38
2022-09-09T19:01:42.890Z,101076.19
2022-09-09T19:04:45.134Z,101087.91
2022-09-09T19:07:47.269Z,101077.84
2022-09-09T19:10:49.380Z,101088.31
2022-09-09T19:13:53.801Z,101091.03
2022-09-09T19:16:56.699Z,101088.94
2022-09-09T19:19:58.793Z,101074.09
2022-09-09T19:23:00.811Z,101084.34
2022-09-09T19:26:03.715Z,101076.59
2022-09-09T19:29:05.903Z,101083.28
2022-09-09T19:35:31.483Z,101072.97
2022-09-09T19:38:34.451Z,101077.16
2022-09-09T19:41:37.175Z,101081.56
2022-09-09T19:44:39.845Z,101075.84
2022-09-09T19:47:43.013Z,101067.66
2022-09-09T19:50:45.081Z,101064.31
2022-09-09T19:53:53.677Z,101066.44
2022-09-09T19:56:55.731Z,101033.56
2022-09-09T19:59:57.799Z,101061.19
2022-09-09T20:03:18.144Z,101055.53
2022-09-09T20:06:24.272Z,101063.31
2022-09-09T20:09:29.165Z,101058.72
2022-09-09T20:12:31.252Z,101052.25
2022-09-09T20:15:33.442Z,101059.78
2022-09-09T20:18:38.572Z,101053.50
2022-09-09T20:21:47.611Z,101062.06
2022-09-09T20:24:50.085Z,101059.09
2022-09-09T20:27:53.135Z,101053.72
2022-09-09T20:30:55.718Z,101074.09
2022-09-09T20:33:58.491Z,101070.28
2022-09-09T20:37:02.808Z,101068.00
2022-09-09T20:40:05.271Z,101069.88
2022-09-09T20:43:07.340Z,101073.91
2022-09-09T20:46:10.055Z,101067.38
2022-09-09T20:49:12.258Z,101068.22
2022-09-09T20:52:15.335Z,101064.47
2022-09-09T20:55:17.334Z,101054.22
2022-09-09T20:58:19.335Z,101076.44
2022-09-09T21:01:22.040Z,101063.00
2022-09-09T21:04:25.225Z,101068.47
2022-09-09T21:07:29.101Z,101085.06
2022-09-09T21:10:31.489Z,101080.44
2022-09-09T21:13:37.151Z,101076.88
2022-09-09T21:16:39.318Z,101061.56
2022-09-09T21:19:41.390Z,101069.34
2022-09-09T21:22:43.329Z,101061.34
2022-09-09T21:25:45.739Z,101062.41
2022-09-09T21:28:47.826Z,101067.44
2022-09-09T21:31:49.914Z,101067.44
2022-09-09T21:34:52.079Z,101067.84
2022-09-09T21:37:54.474Z,101063.00
2022-09-09T21:40:56.490Z,101063.25
2022-09-09T21:43:59.041Z,101063.63
2022-09-09T21:47:01.101Z,101060.06
2022-09-09T21:50:03.225Z,101061.34
2022-09-09T21:53:06.099Z,101051.69
2022-09-09T21:56:11.840Z,101056.72
2022-09-09T21:59:13.847Z,101051.47
2022-09-09T22:02:17.155Z,101056.50
2022-09-09T22:05:19.255Z,101049.81
2022-09-09T22:08:21.821Z,101040.34
2022-09-09T22:11:24.408Z,101037.63
2022-09-09T22:14:27.539Z,101046.00
2022-09-09T22:17:30.318Z,101047.09
2022-09-09T22:20:33.983Z,101044.75
2022-09-09T22:23:36.827Z,101046.59
2022-09-09T22:26:39.438Z,101035.53
2022-09-09T22:29:41.880Z,101040.75
2022-09-09T22:32:44.117Z,101034.06
2022-09-09T22:35:46.172Z,101035.75
2022-09-09T22:38:49.715Z,101037.03
2022-09-09T22:41:51.783Z,101035.97
2022-09-09T22:44:53.819Z,101031.75
2022-09-09T22:47:57.292Z,101029.44
2022-09-09T22:51:11.384Z,101031.72
2022-09-09T22:54:13.565Z,101013.31
2022-09-09T22:57:15.618Z,101020.19
2022-09-09T23:00:18.569Z,101025.22
2022-09-09T23:03:22.643Z,101029.38
2022-09-09T23:06:27.509Z,101036.75
2022-09-09T23:09:29.557Z,101032.09
2022-09-09T23:12:31.739Z,101035.66
2022-09-09T23:15:33.783Z,101030.22
2022-09-09T23:18:37.256Z,101019.56
2022-09-09T23:21:41.215Z,101036.53
2022-09-09T23:24:43.394Z,101041.53
2022-09-09T23:27:45.847Z,101045.97
2022-09-09T23:30:47.977Z,101026.88
2022-09-09T23:33:50.079Z,101024.59
2022-09-09T23:36:53.741Z,101034.63
2022-09-09T23:39:55.772Z,101037.97
2022-09-09T23:42:57.825Z,101021.84
2022-09-09T23:46:01.430Z,101031.91
2022-09-09T23:49:04.580Z,101021.84
2022-09-09T23:52:07.110Z,101024.34
2022-09-09T23:55:09.450Z,101026.44
2022-09-09T23:58:11.637Z,101017.22
